Time;durP1;ratioP1;P1;durP2;ratioP2;P2;SDS_P1;SDS_P2;PMS_P1;PMS_P2;Temp;Humidity;BMP_temperature;BMP_pressure;BME280_temperature;BME280_humidity;BME280_pressure;Samples;Min_cycle;Max_cycle;Signal;HPM_P1;HPM_P2
2022/03/29 00:00:51;;;;;;;4.60;2.63;;;5.90;99.90;;;;;;5053071;28;20917;-67
2022/03/29 00:03:39;;;;;;;0.50;0.50;;;6.00;99.90;;;;;;5052106;28;20424;-67
2022/03/29 00:06:27;;;;;;;0.70;0.70;;;6.00;99.90;;;;;;5052771;28;20467;-67
2022/03/29 00:09:14;;;;;;;1.63;1.20;;;6.00;99.90;;;;;;5052381;28;20953;-67
2022/03/29 00:12:01;;;;;;;1.40;0.80;;;6.00;99.90;;;;;;5052011;28;20432;-67
2022/03/29 00:14:48;;;;;;;0.60;0.60;;;6.00;99.90;;;;;;5052669;28;20471;-68
2022/03/29 00:17:35;;;;;;;1.70;1.60;;;6.10;99.90;;;;;;5052735;28;20421;-66
2022/03/29 00:20:23;;;;;;;2.23;2.03;;;6.10;99.90;;;;;;5052268;28;20494;-68
2022/03/29 00:23:10;;;;;;;0.50;0.50;;;6.10;99.90;;;;;;5055860;28;20425;-68
2022/03/29 00:25:58;;;;;;;0.60;0.60;;;6.00;99.90;;;;;;5056990;28;20435;-67
2022/03/29 00:28:45;;;;;;;0.50;0.50;;;6.10;99.90;;;;;;5056409;28;20452;-69
2022/03/29 00:31:32;;;;;;;2.53;1.73;;;6.00;99.90;;;;;;5056293;28;20421;-67
2022/03/29 00:34:19;;;;;;;2.90;1.73;;;6.00;99.90;;;;;;5057373;28;20464;-68
2022/03/29 00:37:07;;;;;;;1.10;1.00;;;6.00;99.90;;;;;;5056319;28;20443;-68
2022/03/29 00:39:54;;;;;;;0.50;0.50;;;5.90;99.90;;;;;;5056653;28;20449;-68
2022/03/29 00:42:41;;;;;;;0.87;0.87;;;5.80;99.90;;;;;;5056375;28;20435;-67
2022/03/29 00:45:29;;;;;;;0.50;0.50;;;5.80;99.90;;;;;;5056615;28;20416;-68
2022/03/29 00:48:16;;;;;;;0.70;0.70;;;5.80;99.90;;;;;;5055789;28;20466;-68
2022/03/29 00:51:03;;;;;;;1.00;0.97;;;5.70;99.90;;;;;;5055972;28;20945;-67
2022/03/29 00:53:52;;;;;;;2.57;1.33;;;5.80;99.90;;;;;;5056662;28;20801;-67
2022/03/29 00:56:39;;;;;;;0.53;0.53;;;5.80;99.90;;;;;;5055637;28;20432;-68
2022/03/29 00:59:26;;;;;;;0.50;0.50;;;5.60;99.90;;;;;;5055053;28;20822;-67
2022/03/29 01:02:14;;;;;;;0.90;0.90;;;5.90;99.90;;;;;;5055951;28;20424;-68
2022/03/29 01:05:00;;;;;;;0.50;0.50;;;6.00;99.90;;;;;;5056353;28;20504;-67
2022/03/29 01:07:47;;;;;;;2.30;1.43;;;6.10;99.90;;;;;;5056217;28;20420;-69
2022/03/29 01:10:36;;;;;;;2.10;2.00;;;6.20;99.90;;;;;;5055579;28;20443;-67
2022/03/29 01:13:23;;;;;;;0.77;0.60;;;6.30;99.90;;;;;;5056073;28;20424;-67
2022/03/29 01:19:18;;;;;;;1.60;1.50;;;6.40;99.90;;;;;;5055277;28;20428;-70
2022/03/29 01:22:09;;;;;;;2.93;1.50;;;6.50;99.90;;;;;;5055116;28;20497;-67
2022/03/29 01:24:57;;;;;;;0.70;0.70;;;6.50;99.90;;;;;;5055178;28;20424;-68
2022/03/29 01:27:46;;;;;;;0.83;0.83;;;6.50;99.90;;;;;;5054986;28;20809;-69
2022/03/29 01:30:33;;;;;;;1.03;1.03;;;6.50;99.90;;;;;;5054844;28;20459;-67
2022/03/29 01:33:21;;;;;;;0.90;0.90;;;6.50;99.90;;;;;;5054131;28;20436;-67
2022/03/29 01:36:09;;;;;;;3.77;1.70;;;6.50;99.90;;;;;;5054659;28;20459;-66
2022/03/29 01:38:59;;;;;;;3.50;3.20;;;6.50;99.90;;;;;;5055679;28;20447;-67
2022/03/29 01:41:46;;;;;;;1.10;1.00;;;6.50;99.90;;;;;;5055414;28;20420;-67
2022/03/29 01:44:33;;;;;;;3.17;1.60;;;6.40;99.90;;;;;;5054535;28;20435;-67
2022/03/29 01:47:21;;;;;;;0.90;0.90;;;6.50;99.90;;;;;;5055312;28;20500;-68
2022/03/29 01:50:10;;;;;;;0.80;0.80;;;6.50;99.90;;;;;;5053687;28;20441;-68
2022/03/29 01:52:57;;;;;;;2.93;2.03;;;6.50;99.90;;;;;;5054735;28;20799;-68
2022/03/29 01:55:47;;;;;;;0.90;0.90;;;6.40;99.90;;;;;;5047068;28;20469;-67
2022/03/29 01:58:34;;;;;;;7.13;2.67;;;6.40;99.90;;;;;;5055033;28;20528;-68
2022/03/29 02:01:21;;;;;;;3.97;1.60;;;6.40;99.90;;;;;;5054918;28;20507;-67
2022/03/29 02:04:08;;;;;;;0.50;0.50;;;6.30;99.90;;;;;;5055425;28;20455;-68
2022/03/29 02:06:56;;;;;;;0.50;0.50;;;6.40;99.90;;;;;;5055910;28;20502;-66
2022/03/29 02:09:43;;;;;;;1.30;1.27;;;6.40;99.90;;;;;;5055822;28;20854;-67
2022/03/29 02:12:31;;;;;;;1.03;1.03;;;6.50;99.90;;;;;;5054582;28;20417;-68
2022/03/29 02:15:19;;;;;;;0.50;0.50;;;6.40;99.90;;;;;;5055300;28;21066;-67
2022/03/29 02:18:06;;;;;;;5.00;3.13;;;6.50;99.90;;;;;;5054843;28;20428;-67
2022/03/29 02:20:54;;;;;;;2.63;2.40;;;6.50;99.90;;;;;;5053358;28;20428;-67
2022/03/29 02:23:41;;;;;;;5.00;2.73;;;6.60;99.90;;;;;;5053929;28;20953;-67
2022/03/29 02:26:27;;;;;;;1.93;1.90;;;6.50;99.90;;;;;;5053994;28;20791;-68
2022/03/29 02:29:16;;;;;;;3.90;2.17;;;6.60;99.90;;;;;;5083255;22;20491;-68
2022/03/29 02:32:03;;;;;;;3.23;0.93;;;6.60;99.90;;;;;;5095085;28;20427;-69
2022/03/29 02:34:50;;;;;;;0.70;0.70;;;6.60;99.90;;;;;;5107250;28;20459;-72
2022/03/29 02:37:38;;;;;;;3.03;1.90;;;6.60;99.90;;;;;;5102728;28;20476;-69
2022/03/29 02:40:25;;;;;;;2.13;1.23;;;6.60;99.90;;;;;;5100182;28;20461;-69
2022/03/29 02:43:11;;;;;;;0.40;0.40;;;6.60;99.90;;;;;;5092217;28;20443;-71
2022/03/29 02:46:00;;;;;;;0.40;0.40;;;6.60;99.90;;;;;;5087726;28;20465;-68
2022/03/29 02:48:46;;;;;;;3.80;1.97;;;6.60;99.90;;;;;;5087089;28;20424;-72
2022/03/29 02:51:33;;;;;;;3.73;3.40;;;6.70;99.90;;;;;;5092286;28;20452;-69
2022/03/29 02:54:21;;;;;;;0.50;0.50;;;6.60;99.90;;;;;;5073872;28;20931;-69
2022/03/29 02:57:09;;;;;;;0.50;0.50;;;6.60;99.90;;;;;;5073257;28;20416;-69
2022/03/29 02:59:56;;;;;;;1.27;0.80;;;6.60;99.90;;;;;;5075523;28;20440;-69
2022/03/29 03:02:45;;;;;;;4.30;2.03;;;6.60;99.90;;;;;;5075080;28;20494;-69
2022/03/29 03:05:32;;;;;;;4.70;3.23;;;6.60;99.90;;;;;;5075513;28;20434;-72
2022/03/29 03:08:19;;;;;;;0.80;0.80;;;6.60;99.90;;;;;;5073766;28;20443;-69
2022/03/29 03:11:07;;;;;;;3.80;2.00;;;6.60;99.90;;;;;;5074323;28;20959;-71
2022/03/29 03:13:53;;;;;;;0.40;0.40;;;6.50;99.90;;;;;;5073748;28;20427;-69
2022/03/29 03:16:41;;;;;;;3.17;2.90;;;6.50;99.90;;;;;;5074737;28;20478;-71
2022/03/29 03:19:29;;;;;;;6.30;2.97;;;6.50;99.90;;;;;;5075673;28;20831;-69
2022/03/29 03:22:16;;;;;;;1.57;0.80;;;6.60;99.90;;;;;;5079036;28;20423;-72
2022/03/29 03:25:04;;;;;;;4.10;1.60;;;6.50;99.90;;;;;;5081691;28;20423;-69
2022/03/29 03:27:51;;;;;;;3.40;2.80;;;6.60;99.90;;;;;;5080885;28;20416;-72
2022/03/29 03:30:38;;;;;;;2.63;2.40;;;6.60;99.90;;;;;;5078515;28;20463;-69
2022/03/29 03:33:24;;;;;;;0.70;0.60;;;6.60;99.90;;;;;;5079131;28;20727;-69
2022/03/29 03:36:13;;;;;;;1.23;1.13;;;6.60;99.90;;;;;;5077835;28;20459;-69
2022/03/29 03:39:00;;;;;;;2.40;1.87;;;6.70;99.90;;;;;;5079438;28;20959;-69
2022/03/29 03:41:48;;;;;;;1.53;1.23;;;6.60;99.90;;;;;;5079330;28;20787;-69
2022/03/29 03:44:34;;;;;;;0.70;0.70;;;6.60;99.90;;;;;;5079808;28;20458;-69
2022/03/29 03:47:21;;;;;;;2.43;2.23;;;6.60;99.90;;;;;;5078235;28;20428;-69
2022/03/29 03:50:10;;;;;;;1.60;1.50;;;6.70;99.90;;;;;;5076352;28;20474;-69
2022/03/29 03:53:00;;;;;;;0.70;0.70;;;6.60;99.90;;;;;;5080361;28;20428;-69
2022/03/29 03:55:47;;;;;;;0.50;0.50;;;6.60;99.90;;;;;;5079492;28;20963;-69
2022/03/29 03:58:33;;;;;;;1.63;1.20;;;6.60;99.90;;;;;;5081838;28;20427;-72
2022/03/29 04:01:20;;;;;;;1.20;1.10;;;6.70;99.90;;;;;;5077443;28;20439;-70
2022/03/29 04:04:07;;;;;;;0.50;0.50;;;6.60;99.90;;;;;;5080168;28;20423;-69
2022/03/29 04:06:54;;;;;;;0.40;0.40;;;6.70;99.90;;;;;;5080595;28;20435;-71
2022/03/29 04:09:42;;;;;;;0.40;0.40;;;6.70;99.90;;;;;;5078496;28;20505;-69
2022/03/29 04:12:29;;;;;;;1.67;0.93;;;6.70;99.90;;;;;;5077554;28;20430;-69
2022/03/29 04:15:16;;;;;;;2.00;1.87;;;6.60;99.90;;;;;;5078311;28;20459;-70
2022/03/29 04:18:03;;;;;;;0.40;0.40;;;6.60;99.90;;;;;;5080818;28;20967;-69
2022/03/29 04:20:50;;;;;;;4.83;2.80;;;6.70;99.90;;;;;;5081123;28;20451;-72
2022/03/29 04:23:37;;;;;;;0.40;0.40;;;6.70;99.90;;;;;;5079674;28;20426;-69
2022/03/29 04:26:25;;;;;;;2.60;1.50;;;6.60;99.90;;;;;;5080415;28;20796;-69
2022/03/29 04:29:12;;;;;;;0.67;0.67;;;6.60;99.90;;;;;;5081575;28;20455;-72
2022/03/29 04:31:59;;;;;;;0.40;0.40;;;6.60;99.90;;;;;;5079750;28;20419;-69
2022/03/29 04:34:47;;;;;;;0.40;0.40;;;6.60;99.90;;;;;;5076972;28;20436;-69
2022/03/29 04:37:34;;;;;;;2.27;1.80;;;6.60;99.90;;;;;;5078611;28;20512;-69
2022/03/29 04:40:21;;;;;;;4.90;3.17;;;6.70;99.90;;;;;;5079989;28;20493;-71
2022/03/29 04:43:10;;;;;;;0.40;0.40;;;6.70;99.90;;;;;;5076094;28;20432;-68
2022/03/29 04:45:57;;;;;;;0.40;0.40;;;6.70;99.90;;;;;;5078817;28;20606;-69
2022/03/29 04:48:44;;;;;;;3.33;3.03;;;6.60;99.90;;;;;;5082057;28;20808;-69
2022/03/29 04:51:34;;;;;;;0.50;0.50;;;6.70;99.90;;;;;;5081487;28;20476;-72
2022/03/29 04:54:21;;;;;;;0.63;0.63;;;6.70;99.90;;;;;;5076237;28;20419;-74
2022/03/29 04:57:08;;;;;;;1.57;1.47;;;6.70;99.90;;;;;;5075138;28;21005;-69
2022/03/29 04:59:56;;;;;;;0.97;0.97;;;6.80;99.90;;;;;;5072769;28;20822;-68
2022/03/29 05:02:44;;;;;;;0.60;0.60;;;7.40;99.90;;;;;;5074886;28;20427;-68
2022/03/29 05:05:31;;;;;;;0.60;0.60;;;6.60;99.90;;;;;;5075071;28;20428;-69
2022/03/29 05:08:18;;;;;;;0.90;0.83;;;6.60;99.90;;;;;;5076677;28;20432;-69
2022/03/29 05:11:05;;;;;;;0.60;0.60;;;6.60;99.90;;;;;;5076206;28;20447;-69
2022/03/29 05:13:52;;;;;;;0.60;0.47;;;6.50;99.90;;;;;;5078244;28;20435;-69
2022/03/29 05:16:40;;;;;;;3.00;1.77;;;6.50;99.90;;;;;;5078556;28;20466;-69
2022/03/29 05:19:28;;;;;;;0.40;0.40;;;6.50;99.90;;;;;;5078243;28;20534;-69
2022/03/29 05:22:15;;;;;;;0.87;0.87;;;6.50;99.90;;;;;;5081889;28;20428;-73
2022/03/29 05:25:02;;;;;;;2.70;2.50;;;6.50;99.90;;;;;;5092403;28;20423;-73
2022/03/29 05:27:49;;;;;;;0.77;0.77;;;6.60;99.90;;;;;;5092391;28;20424;-71
2022/03/29 05:30:36;;;;;;;1.30;1.30;;;6.50;99.90;;;;;;5078576;28;20460;-69
2022/03/29 05:33:25;;;;;;;8.17;3.57;;;6.50;99.90;;;;;;5081995;28;20477;-69
2022/03/29 05:36:13;;;;;;;1.53;0.70;;;6.60;99.90;;;;;;5080219;28;20971;-69
2022/03/29 05:39:00;;;;;;;2.30;1.70;;;6.50;99.90;;;;;;5077013;28;20435;-69
2022/03/29 05:41:47;;;;;;;11.63;4.83;;;6.60;99.90;;;;;;5081787;28;20424;-69
2022/03/29 05:44:34;;;;;;;1.13;1.13;;;6.60;99.90;;;;;;5082437;28;20436;-69
2022/03/29 05:50:33;;;;;;;9.07;4.80;;;6.60;99.90;;;;;;5016356;28;20451;-70
2022/03/29 05:53:20;;;;;;;0.40;0.40;;;6.60;99.90;;;;;;5078777;28;20987;-69
2022/03/29 05:56:07;;;;;;;2.17;1.97;;;6.60;99.90;;;;;;5077466;28;20461;-69
2022/03/29 05:58:54;;;;;;;5.20;2.60;;;6.70;99.90;;;;;;5080102;28;20424;-71
2022/03/29 06:01:43;;;;;;;5.50;3.03;;;6.70;99.90;;;;;;5082719;28;20940;-70
2022/03/29 06:04:30;;;;;;;4.23;2.90;;;7.40;99.90;;;;;;5090804;28;20436;-69
2022/03/29 06:07:19;;;;;;;7.17;3.17;;;6.60;99.90;;;;;;5088555;28;20427;-70
2022/03/29 06:10:07;;;;;;;6.73;3.37;;;6.70;99.90;;;;;;5087806;28;20451;-70
2022/03/29 06:12:57;;;;;;;3.80;3.37;;;6.70;99.90;;;;;;5080314;28;20482;-69
2022/03/29 06:15:45;;;;;;;2.40;2.20;;;6.70;99.90;;;;;;5077838;28;20459;-69
2022/03/29 06:18:33;;;;;;;4.53;2.73;;;6.80;99.90;;;;;;5077368;28;20432;-69
2022/03/29 06:21:21;;;;;;;5.27;2.73;;;6.80;99.90;;;;;;5079415;28;20432;-71
2022/03/29 06:24:10;;;;;;;3.07;2.00;;;6.80;99.90;;;;;;5080108;28;20432;-70
2022/03/29 06:26:57;;;;;;;2.50;1.63;;;6.90;99.90;;;;;;5079593;28;20416;-69
2022/03/29 06:29:44;;;;;;;0.50;0.50;;;6.90;99.90;;;;;;5076278;28;20513;-70
2022/03/29 06:32:32;;;;;;;6.63;4.13;;;6.90;99.90;;;;;;5077691;28;20438;-68
2022/03/29 06:35:21;;;;;;;3.10;2.90;;;7.00;99.90;;;;;;5089821;28;20434;-72
2022/03/29 06:38:08;;;;;;;1.27;1.17;;;7.10;99.90;;;;;;5082159;28;20432;-70
2022/03/29 06:40:57;;;;;;;3.33;2.67;;;7.20;99.90;;;;;;5077716;28;20455;-69
2022/03/29 06:43:44;;;;;;;3.87;3.40;;;7.10;99.90;;;;;;5057257;28;20423;-69
2022/03/29 06:46:31;;;;;;;1.20;1.20;;;7.20;99.90;;;;;;5071579;28;20428;-70
2022/03/29 06:49:18;;;;;;;10.73;6.33;;;7.20;99.90;;;;;;5073867;28;20462;-69
2022/03/29 06:52:07;;;;;;;22.17;6.97;;;7.30;99.90;;;;;;5055760;28;20427;-70
2022/03/29 06:54:54;;;;;;;1.83;1.00;;;7.20;99.90;;;;;;5058038;28;20427;-69
2022/03/29 06:57:43;;;;;;;2.83;2.63;;;7.20;99.90;;;;;;5077497;28;21001;-70
2022/03/29 07:00:30;;;;;;;4.10;3.23;;;7.60;99.90;;;;;;5069739;28;20459;-70
2022/03/29 07:03:17;;;;;;;1.43;0.90;;;7.70;99.90;;;;;;5072969;28;20427;-69
2022/03/29 07:06:04;;;;;;;22.17;3.40;;;7.80;99.90;;;;;;5079429;28;20415;-71
2022/03/29 07:11:56;;;;;;;0.73;0.73;;;7.90;99.90;;;;;;5071191;28;20409;-70
2022/03/29 07:14:45;;;;;;;2.90;1.83;;;8.10;99.90;;;;;;5088222;28;20451;-71
2022/03/29 07:17:32;;;;;;;1.83;1.73;;;8.10;99.90;;;;;;5090771;28;20459;-72
2022/03/29 07:20:20;;;;;;;4.23;2.00;;;8.10;99.90;;;;;;5090215;28;20443;-70
2022/03/29 07:23:07;;;;;;;3.13;1.43;;;8.20;99.90;;;;;;5090855;28;20426;-69
2022/03/29 07:25:54;;;;;;;1.30;1.20;;;8.40;99.90;;;;;;5088439;28;20424;-70
2022/03/29 07:28:41;;;;;;;1.93;1.80;;;8.50;99.90;;;;;;5090305;28;20494;-69
2022/03/29 07:31:30;;;;;;;0.40;0.40;;;8.50;99.90;;;;;;5077839;28;20424;-76
2022/03/29 07:34:16;;;;;;;10.73;4.70;;;8.50;99.90;;;;;;5090713;28;20432;-74
2022/03/29 07:37:05;;;;;;;6.83;2.83;;;8.70;99.90;;;;;;5091133;28;20463;-69
2022/03/29 07:39:53;;;;;;;3.10;2.90;;;8.60;99.90;;;;;;5090626;28;21089;-71
2022/03/29 07:42:40;;;;;;;1.47;1.47;;;8.60;99.90;;;;;;5086535;28;20428;-72
2022/03/29 07:45:28;;;;;;;2.50;1.90;;;8.40;99.90;;;;;;5090327;28;20431;-71
2022/03/29 07:48:16;;;;;;;7.40;4.70;;;8.30;99.90;;;;;;5090346;28;20446;-74
2022/03/29 07:51:05;;;;;;;10.77;5.80;;;8.30;99.90;;;;;;5089153;28;20510;-71
2022/03/29 07:53:52;;;;;;;3.53;3.23;;;8.40;99.90;;;;;;5088756;28;20431;-73
2022/03/29 07:56:39;;;;;;;12.77;6.10;;;8.30;99.90;;;;;;5080430;28;20487;-70
2022/03/29 07:59:27;;;;;;;8.23;3.70;;;8.40;99.90;;;;;;5075479;28;20448;-69
2022/03/29 08:02:14;;;;;;;2.53;1.10;;;8.30;99.90;;;;;;5077113;28;20419;-69
2022/03/29 08:05:02;;;;;;;6.63;3.37;;;8.20;99.90;;;;;;5075166;28;20443;-72
2022/03/29 08:07:50;;;;;;;0.67;0.67;;;8.30;99.90;;;;;;5080012;28;20427;-70
2022/03/29 08:10:37;;;;;;;0.50;0.50;;;8.30;99.90;;;;;;5087020;28;20444;-72
2022/03/29 08:13:25;;;;;;;3.00;1.43;;;8.40;99.90;;;;;;5085478;28;20459;-70
2022/03/29 08:16:12;;;;;;;3.37;2.83;;;8.50;99.90;;;;;;5077389;28;20470;-72
2022/03/29 08:18:59;;;;;;;0.63;0.63;;;8.50;99.90;;;;;;5076502;28;20427;-69
2022/03/29 08:21:51;;;;;;;2.20;1.80;;;8.30;99.90;;;;;;5076232;28;20439;-70
2022/03/29 08:24:38;;;;;;;1.70;1.00;;;8.30;99.90;;;;;;5073459;28;20444;-71
2022/03/29 08:27:25;;;;;;;3.97;3.70;;;8.20;99.90;;;;;;5073629;28;20420;-70
2022/03/29 08:30:15;;;;;;;2.20;1.43;;;8.30;99.90;;;;;;5083926;28;20455;-71
2022/03/29 08:33:02;;;;;;;1.77;1.67;;;8.50;99.90;;;;;;5078577;28;20436;-70
2022/03/29 08:35:49;;;;;;;1.37;1.27;;;8.70;99.90;;;;;;5060633;28;20432;-70
2022/03/29 08:38:38;;;;;;;7.30;3.07;;;8.70;99.90;;;;;;5058941;28;20429;-70
2022/03/29 08:41:26;;;;;;;2.83;2.03;;;8.80;99.90;;;;;;5085062;28;20462;-72
2022/03/29 08:44:13;;;;;;;9.63;3.90;;;9.10;99.90;;;;;;5089500;28;20810;-71
2022/03/29 08:47:01;;;;;;;2.83;2.57;;;9.30;99.90;;;;;;5073246;28;20420;-70
2022/03/29 08:49:51;;;;;;;1.43;1.33;;;9.10;99.90;;;;;;5082567;28;20447;-70
2022/03/29 08:52:39;;;;;;;2.90;2.70;;;9.20;99.90;;;;;;5087960;28;20446;-70
2022/03/29 08:55:28;;;;;;;14.53;4.90;;;9.30;99.90;;;;;;5084048;28;20431;-71
2022/03/29 08:58:17;;;;;;;4.10;3.80;;;9.10;99.90;;;;;;5083274;28;20456;-69
2022/03/29 09:01:04;;;;;;;8.13;5.50;;;8.80;99.90;;;;;;5062210;28;20462;-69
2022/03/29 09:04:08;;;;;;;1.77;0.93;;;8.90;99.90;;;;;;5061249;28;20443;-71
2022/03/29 09:06:58;;;;;;;19.30;7.87;;;9.00;99.90;;;;;;5076094;28;20423;-72
2022/03/29 09:09:45;;;;;;;19.77;6.57;;;9.30;99.90;;;;;;5082504;28;20447;-71
2022/03/29 09:12:34;;;;;;;0.90;0.70;;;9.40;99.90;;;;;;5084397;28;20450;-69
2022/03/29 09:15:23;;;;;;;7.47;4.67;;;9.20;99.90;;;;;;5078209;28;20970;-69
2022/03/29 09:18:11;;;;;;;11.97;7.13;;;9.30;99.90;;;;;;5081013;28;21277;-70
2022/03/29 09:21:11;;;;;;;1.17;0.93;;;9.30;99.90;;;;;;5078157;28;20479;-70
2022/03/29 09:24:05;;;;;;;1.13;1.07;;;9.50;99.90;;;;;;5079846;28;20460;-72
2022/03/29 09:26:54;;;;;;;2.90;2.70;;;9.60;99.90;;;;;;5089042;28;20423;-70
2022/03/29 09:29:42;;;;;;;8.23;6.07;;;9.60;99.90;;;;;;5079455;28;20478;-72
2022/03/29 09:32:29;;;;;;;15.50;7.03;;;9.50;99.90;;;;;;5086894;28;20431;-72
2022/03/29 09:35:17;;;;;;;13.33;3.43;;;9.50;99.90;;;;;;5090554;28;20415;-72
2022/03/29 09:38:22;;;;;;;0.70;0.70;;;9.50;99.90;;;;;;5088930;28;20467;-73
2022/03/29 09:41:21;;;;;;;2.93;1.63;;;9.60;99.90;;;;;;5077905;28;20442;-69
2022/03/29 09:44:10;;;;;;;5.33;4.30;;;9.70;99.90;;;;;;5075590;28;20438;-70
2022/03/29 09:47:01;;;;;;;2.60;2.17;;;9.70;99.90;;;;;;5081282;28;20428;-71
2022/03/29 09:49:56;;;;;;;4.10;3.87;;;9.80;99.90;;;;;;5086505;28;20444;-69
2022/03/29 09:52:44;;;;;;;0.70;0.70;;;9.90;99.90;;;;;;5093269;28;20505;-70
2022/03/29 09:55:31;;;;;;;9.70;5.23;;;9.90;99.90;;;;;;5075912;28;20420;-70
2022/03/29 09:58:18;;;;;;;11.80;4.03;;;9.90;99.90;;;;;;5077717;28;20459;-72
2022/03/29 10:01:06;;;;;;;2.87;2.63;;;10.00;99.90;;;;;;5075488;28;20447;-71
2022/03/29 10:03:55;;;;;;;3.17;2.87;;;10.00;99.90;;;;;;5089970;28;20439;-71
2022/03/29 10:06:45;;;;;;;3.20;2.40;;;9.90;99.90;;;;;;5073333;28;20424;-69
2022/03/29 10:09:35;;;;;;;2.10;1.60;;;9.80;99.90;;;;;;5077855;28;20513;-69
2022/03/29 10:12:23;;;;;;;9.10;3.93;;;9.80;99.90;;;;;;5074280;28;20530;-70
2022/03/29 10:15:14;;;;;;;2.87;2.30;;;9.90;99.90;;;;;;5069798;28;20420;-69
2022/03/29 10:18:02;;;;;;;3.63;1.93;;;9.90;99.90;;;;;;5077547;28;20454;-69
2022/03/29 10:20:50;;;;;;;2.23;1.90;;;9.90;99.90;;;;;;5076505;28;20462;-70
2022/03/29 10:23:37;;;;;;;0.80;0.80;;;10.10;99.90;;;;;;5056077;28;20421;-70
2022/03/29 10:26:27;;;;;;;2.30;2.10;;;10.30;99.90;;;;;;5077804;28;20451;-70
2022/03/29 10:29:14;;;;;;;2.43;1.90;;;10.40;99.90;;;;;;5065161;28;20479;-72
2022/03/29 10:32:05;;;;;;;0.40;0.40;;;10.30;99.90;;;;;;5074368;28;20448;-70
2022/03/29 10:35:03;;;;;;;2.33;2.23;;;10.40;99.90;;;;;;5074602;28;20539;-72
2022/03/29 10:37:57;;;;;;;9.83;5.83;;;10.60;99.90;;;;;;5066216;28;20478;-70
2022/03/29 10:40:44;;;;;;;0.83;0.83;;;10.80;99.90;;;;;;5066439;28;20979;-70
2022/03/29 10:43:32;;;;;;;0.60;0.60;;;10.90;99.90;;;;;;5076268;28;20493;-70
2022/03/29 10:46:23;;;;;;;10.43;4.87;;;11.00;99.90;;;;;;5075781;28;20473;-71
2022/03/29 10:49:24;;;;;;;1.87;1.30;;;11.00;99.90;;;;;;5087196;28;20634;-70
2022/03/29 10:52:30;;;;;;;9.43;1.47;;;10.70;99.90;;;;;;5095806;28;20857;-72
2022/03/29 10:55:25;;;;;;;6.37;3.37;;;10.60;99.90;;;;;;5085795;28;20423;-70
2022/03/29 10:58:14;;;;;;;3.47;3.00;;;11.00;99.90;;;;;;5089946;28;20459;-75
2022/03/29 11:01:15;;;;;;;2.63;2.33;;;11.00;99.90;;;;;;5094305;28;20451;-69
2022/03/29 11:04:03;;;;;;;1.97;1.73;;;10.80;99.90;;;;;;5084368;28;20441;-71
2022/03/29 11:07:10;;;;;;;2.20;1.60;;;10.80;99.90;;;;;;5085336;28;20958;-72
2022/03/29 11:10:09;;;;;;;5.90;3.00;;;10.60;99.90;;;;;;5074396;28;20526;-71
2022/03/29 11:12:57;;;;;;;0.87;0.87;;;10.70;99.90;;;;;;5079372;28;20426;-71
2022/03/29 11:15:45;;;;;;;2.83;1.43;;;11.00;99.90;;;;;;5076809;28;20444;-71
2022/03/29 11:18:50;;;;;;;8.80;3.80;;;11.20;99.90;;;;;;5081234;28;20564;-73
2022/03/29 11:21:39;;;;;;;5.17;3.37;;;11.20;99.90;;;;;;5077969;28;20450;-71
2022/03/29 11:24:27;;;;;;;1.43;1.33;;;11.00;99.90;;;;;;5083424;28;20450;-71
2022/03/29 11:27:22;;;;;;;5.13;2.27;;;10.80;99.90;;;;;;5084461;28;20469;-70
2022/03/29 11:30:12;;;;;;;1.00;1.00;;;11.00;99.90;;;;;;5081192;28;20541;-71
2022/03/29 11:33:01;;;;;;;0.50;0.50;;;11.10;99.90;;;;;;5081392;28;20420;-71
2022/03/29 11:35:53;;;;;;;1.20;1.10;;;11.20;99.90;;;;;;5089562;28;20847;-70
2022/03/29 11:38:40;;;;;;;1.30;1.20;;;11.60;99.90;;;;;;5077299;28;20467;-71
2022/03/29 11:41:29;;;;;;;6.13;3.10;;;11.90;99.90;;;;;;5075110;28;20434;-71
2022/03/29 11:44:17;;;;;;;2.83;1.40;;;11.90;99.90;;;;;;5073791;28;20434;-70
2022/03/29 11:47:08;;;;;;;5.03;4.53;;;12.00;99.90;;;;;;5073575;28;20522;-71
2022/03/29 11:49:55;;;;;;;1.30;1.20;;;12.30;99.90;;;;;;5075767;28;20455;-75
2022/03/29 11:52:46;;;;;;;2.00;1.17;;;12.40;99.90;;;;;;5081335;28;20424;-70
2022/03/29 11:55:33;;;;;;;5.30;1.10;;;12.40;99.90;;;;;;5077065;28;20502;-71
2022/03/29 11:58:21;;;;;;;3.23;2.30;;;12.30;99.90;;;;;;5075149;28;20467;-70
2022/03/29 12:01:11;;;;;;;1.63;1.53;;;12.50;99.90;;;;;;5059198;28;20531;-71
2022/03/29 12:04:00;;;;;;;7.70;3.27;;;12.60;99.90;;;;;;5071623;28;20786;-71
2022/03/29 12:06:49;;;;;;;5.20;3.27;;;12.50;99.90;;;;;;5071328;28;20424;-70
2022/03/29 12:09:36;;;;;;;4.13;2.73;;;12.30;99.90;;;;;;5073758;28;20435;-71
2022/03/29 12:12:24;;;;;;;0.40;0.40;;;11.90;99.90;;;;;;5053724;28;20478;-70
2022/03/29 12:15:12;;;;;;;1.70;1.23;;;11.80;99.90;;;;;;5053299;28;20429;-70
2022/03/29 12:21:10;;;;;;;0.40;0.40;;;12.50;99.90;;;;;;5082208;28;20545;-71
2022/03/29 12:24:02;;;;;;;1.93;0.83;;;12.80;99.90;;;;;;5088699;28;20410;-72
2022/03/29 12:26:52;;;;;;;2.00;1.77;;;13.00;99.90;;;;;;5082559;28;20423;-72
2022/03/29 12:29:42;;;;;;;0.70;0.57;;;13.00;99.90;;;;;;5081443;28;20450;-72
2022/03/29 12:32:30;;;;;;;3.30;2.40;;;13.20;99.90;;;;;;5079768;28;20423;-72
2022/03/29 12:35:18;;;;;;;13.83;4.47;;;13.30;99.90;;;;;;5079260;28;20814;-72
2022/03/29 12:38:10;;;;;;;1.47;1.23;;;13.20;99.90;;;;;;5080169;28;20827;-71
2022/03/29 12:41:00;;;;;;;7.70;4.10;;;13.40;99.90;;;;;;5079581;28;20447;-72
2022/03/29 12:43:54;;;;;;;0.80;0.70;;;13.50;99.90;;;;;;5078111;28;20435;-72
2022/03/29 12:46:44;;;;;;;7.57;3.13;;;13.60;99.90;;;;;;5091921;28;20470;-72
2022/03/29 12:49:32;;;;;;;1.90;1.23;;;13.80;99.90;;;;;;5087515;28;20447;-72
2022/03/29 12:52:20;;;;;;;1.03;0.90;;;13.50;99.90;;;;;;5096614;28;20932;-71
2022/03/29 12:55:13;;;;;;;1.47;1.13;;;13.30;99.90;;;;;;5097409;28;20430;-70
2022/03/29 12:58:02;;;;;;;2.87;1.73;;;13.60;99.90;;;;;;5088709;28;20524;-71
2022/03/29 13:00:49;;;;;;;2.23;2.03;;;13.60;99.90;;;;;;5067006;28;20803;-72
2022/03/29 13:03:37;;;;;;;4.27;1.73;;;14.10;99.90;;;;;;5064765;28;20454;-72
2022/03/29 13:06:24;;;;;;;3.80;2.77;;;14.60;99.50;;;;;;5085342;28;20430;-71
2022/03/29 13:09:16;;;;;;;5.70;3.70;;;14.70;98.40;;;;;;5095672;28;20497;-72
2022/03/29 13:12:12;;;;;;;3.47;3.03;;;14.30;98.40;;;;;;5063997;28;20814;-70
2022/03/29 13:15:00;;;;;;;1.27;0.90;;;14.20;98.30;;;;;;5082459;28;20569;-70
2022/03/29 13:17:47;;;;;;;0.67;0.60;;;14.90;97.90;;;;;;5084172;28;20455;-71
2022/03/29 13:20:36;;;;;;;1.25;1.05;;;16.10;96.30;;;;;;5085657;28;20537;-71
2022/03/29 13:23:30;;;;;;;2.80;2.13;;;17.10;93.70;;;;;;5065491;28;20285;-74
2022/03/29 13:26:19;;;;;;;4.43;2.10;;;16.30;92.40;;;;;;5092242;28;20204;-74
2022/03/29 13:29:10;;;;;;;5.10;1.33;;;15.80;92.00;;;;;;5087248;28;20197;-72
2022/03/29 13:31:57;;;;;;;1.70;1.50;;;15.30;92.20;;;;;;5085493;28;20462;-72
2022/03/29 13:34:44;;;;;;;8.97;2.47;;;14.60;92.60;;;;;;5089253;28;20428;-72
2022/03/29 13:37:31;;;;;;;0.77;0.77;;;13.90;92.40;;;;;;5084737;28;20517;-72
2022/03/29 13:40:18;;;;;;;2.70;1.90;;;13.90;92.50;;;;;;5081984;28;20454;-72
2022/03/29 13:43:06;;;;;;;1.67;1.43;;;14.20;92.10;;;;;;5075598;28;20420;-72
2022/03/29 13:45:54;;;;;;;1.87;1.77;;;14.60;91.80;;;;;;5077184;28;20451;-72
2022/03/29 13:48:42;;;;;;;0.47;0.47;;;14.60;91.50;;;;;;5083933;28;20943;-71
2022/03/29 13:51:29;;;;;;;4.03;1.93;;;14.70;91.40;;;;;;5085277;28;20423;-72
2022/03/29 13:54:16;;;;;;;1.00;1.00;;;14.60;91.50;;;;;;5066251;28;20444;-71
2022/03/29 13:57:04;;;;;;;0.73;0.73;;;16.20;90.40;;;;;;5085801;28;20477;-72
2022/03/29 13:59:51;;;;;;;0.97;0.80;;;18.20;86.20;;;;;;5079949;28;20456;-73
2022/03/29 14:02:39;;;;;;;4.00;2.10;;;19.50;83.10;;;;;;5060922;28;20688;-73
2022/03/29 14:05:27;;;;;;;1.17;1.08;;;19.80;76.70;;;;;;5057619;28;20205;-72
2022/03/29 14:08:14;;;;;;;5.68;0.80;;;20.20;76.00;;;;;;5058698;28;20204;-73
2022/03/29 14:11:03;;;;;;;0.40;0.40;;;19.60;73.00;;;;;;5065411;28;20267;-73
2022/03/29 14:13:50;;;;;;;2.55;2.45;;;18.20;75.70;;;;;;5069760;28;20251;-73
2022/03/29 14:16:38;;;;;;;3.30;3.05;;;18.50;73.90;;;;;;5077979;28;20201;-72
2022/03/29 14:19:27;;;;;;;3.53;3.25;;;19.70;72.80;;;;;;5085596;28;20232;-71
2022/03/29 14:22:14;;;;;;;0.40;0.40;;;19.80;70.40;;;;;;5075737;28;20201;-73
2022/03/29 14:25:01;;;;;;;0.57;0.57;;;18.60;70.80;;;;;;5074512;28;20731;-73
2022/03/29 14:27:48;;;;;;;4.82;3.83;;;17.00;72.90;;;;;;5074221;28;20197;-73
2022/03/29 14:30:37;;;;;;;2.65;0.98;;;15.60;74.70;;;;;;5073331;28;20224;-73
2022/03/29 14:33:24;;;;;;;1.83;1.73;;;15.00;77.20;;;;;;5074258;28;20606;-75
2022/03/29 14:36:12;;;;;;;1.60;1.50;;;16.20;76.20;;;;;;5054704;28;20705;-73
2022/03/29 14:38:59;;;;;;;1.88;1.25;;;17.30;74.00;;;;;;5073979;28;20232;-73
2022/03/29 14:41:46;;;;;;;1.45;1.00;;;16.90;71.70;;;;;;5071664;28;20197;-73
2022/03/29 14:44:33;;;;;;;7.40;1.33;;;16.90;71.50;;;;;;5070983;28;20197;-73
2022/03/29 14:47:20;;;;;;;1.37;1.17;;;16.20;72.10;;;;;;5071724;28;20227;-72
2022/03/29 14:50:09;;;;;;;0.45;0.45;;;15.90;73.00;;;;;;5091304;22;20249;-69
2022/03/29 14:52:57;;;;;;;2.30;1.38;;;16.20;73.50;;;;;;5067148;28;20201;-70
2022/03/29 14:55:44;;;;;;;3.30;1.42;;;16.80;71.60;;;;;;5063559;28;20193;-68